Impacts METAR Board
IDs:

KDTW - Detroit Metro/Wayne, MI, US

Updated at: 0300 UTC 06 Dec 2019
Potential Impact None Slight Moderate High
Time 05/15Z 05/16Z 05/17Z 05/18Z 05/19Z 05/20Z 05/21Z 05/22Z 05/23Z 06/00Z 06/01Z 06/02Z 06/03Z
Temp36 37 38 38 38 39 39 39 38 38 38 38 38
Dewpt24 24 24 24 25 26 26 26 27 27 29 30 30
Altim30.01 30.03 30.03 30.03 30.03 30.03 30.02 30.04 30.04 30.04 30.04 30.03 30.02
VIS10 10 10 10 10 10 10 10 10 10 10 10 10
CIG45 40 40 110 90 100 90 85 110 110 110 80 75
CoverOVCBKNOVCOVCOVCOVCOVCOVCOVCOVCOVCOVCOVC
FltCatVFRVFRVFRVFRVFRVFRVFRVFRVFRVFRVFRVFRVFR
WX--------------------------
WDir300290290300280290220180110140140160160
WSpd9 13 12 10 10 6 3 4 3 6 5 5 4
WGst-- -- -- -- -- -- -- -- -- -- -- -- --
Raw hourly METARs
KDTW 051453Z 30009KT 10SM BKN045 OVC065 02/M04 A3001 RMK AO2 SLP169 T00221044 51030
KDTW 051553Z 29013KT 10SM BKN040 BKN140 BKN220 03/M04 A3003 RMK AO2 SLP173 T00281044
KDTW 051653Z 29012KT 10SM BKN040 OVC060 03/M04 A3003 RMK AO2 SLP175 T00331044
KDTW 051753Z 30010KT 10SM SCT035 OVC110 03/M04 A3003 RMK AO2 SLP174 T00331044 10039 20000 50004
KDTW 051853Z 28010KT 10SM FEW035 OVC090 03/M04 A3003 RMK AO2 SLP176 T00331039
KDTW 051953Z 29006KT 10SM FEW035 OVC100 04/M03 A3003 RMK AO2 SLP173 T00391033
KDTW 052053Z 22003KT 10SM BKN090 OVC160 04/M03 A3002 RMK AO2 SLP171 T00391033 58003
KDTW 052153Z 18004KT 10SM OVC085 04/M03 A3004 RMK AO2 SLP177 T00391033
KDTW 052253Z 11003KT 10SM OVC110 03/M03 A3004 RMK AO2 SLP180 T00331028
KDTW 052353Z 14006KT 10SM FEW080 OVC110 03/M03 A3004 RMK AO2 SLP180 T00331028 10039 20033 51009
KDTW 060053Z 14005KT 10SM OVC110 03/M02 A3004 RMK AO2 SLP179 T00331017
KDTW 060153Z 16005KT 10SM OVC080 03/M01 A3003 RMK AO2 SLP175 T00331011
KDTW 060253Z 16004KT 10SM BKN075 OVC120 03/M01 A3002 RMK AO2 SLP170 T00331011 58009



Page loaded:  03:53 UTC  |   07:53 PM Pacific  |   08:53 PM Mountain  |   09:53 PM Central  |   10:53 PM Eastern

 

ADVISORIES

FORECASTS

FORECASTS

OBSERVATIONS

USER TOOLS

ABOUT US